createdAt,value
2023-02-03T00:00:31.184Z,98.20
2023-02-03T00:01:31.227Z,98.20
2023-02-03T00:02:31.132Z,98.20
2023-02-03T00:03:31.150Z,98.10
2023-02-03T00:04:31.134Z,98.20
2023-02-03T00:05:31.141Z,98.20
2023-02-03T00:06:31.081Z,98.20
2023-02-03T00:07:31.111Z,98.10
2023-02-03T00:08:31.085Z,98.20
2023-02-03T00:09:31.103Z,98.10
2023-02-03T00:10:31.050Z,97.99
2023-02-03T00:11:31.072Z,97.99
2023-02-03T00:12:31.032Z,97.99
2023-02-03T00:13:31.053Z,98.10
2023-02-03T00:14:31.036Z,97.95
2023-02-03T00:15:31.017Z,97.85
2023-02-03T00:16:31.173Z,97.85
2023-02-03T00:17:31.006Z,97.74
2023-02-03T00:18:30.955Z,97.74
2023-02-03T00:19:30.972Z,97.74
2023-02-03T00:20:30.961Z,97.74
2023-02-03T00:21:30.952Z,97.74
2023-02-03T00:22:30.931Z,97.74
2023-02-03T00:23:30.924Z,97.74
2023-02-03T00:24:30.900Z,97.64
2023-02-03T00:25:30.917Z,97.64
2023-02-03T00:26:30.886Z,97.53
2023-02-03T00:27:30.876Z,97.43
2023-02-03T00:28:30.879Z,97.33
2023-02-03T00:29:30.881Z,97.33
2023-02-03T00:30:30.836Z,97.33
2023-02-03T00:31:30.967Z,97.33
2023-02-03T00:32:30.947Z,97.23
2023-02-03T00:33:30.820Z,97.13
2023-02-03T00:34:30.816Z,97.13
2023-02-03T00:35:31.751Z,97.02
2023-02-03T00:36:30.828Z,96.92
2023-02-03T00:37:30.771Z,96.92
2023-02-03T00:38:30.730Z,96.81
2023-02-03T00:39:30.751Z,96.71
2023-02-03T00:40:30.707Z,96.50
2023-02-03T00:41:30.745Z,96.50
2023-02-03T00:42:30.679Z,96.41
2023-02-03T00:43:30.704Z,96.30
2023-02-03T00:44:30.676Z,96.30
2023-02-03T00:45:30.968Z,95.95
2023-02-03T00:46:30.666Z,95.89
2023-02-03T00:47:30.652Z,95.74
2023-02-03T00:48:30.615Z,95.64
2023-02-03T00:49:30.635Z,95.43
2023-02-03T00:50:30.614Z,95.23
2023-02-03T00:51:30.614Z,95.23
2023-02-03T00:52:30.575Z,95.23
2023-02-03T00:53:30.596Z,95.23
2023-02-03T00:54:32.631Z,95.12
2023-02-03T00:55:30.581Z,94.92
2023-02-03T00:56:30.616Z,94.60
2023-02-03T00:57:30.537Z,94.51
2023-02-03T00:58:30.526Z,94.51
2023-02-03T00:59:30.507Z,94.40
2023-02-03T01:00:30.516Z,93.99
2023-02-03T01:01:30.516Z,93.88
2023-02-03T01:02:30.608Z,93.64
2023-02-03T01:03:30.540Z,93.58
2023-02-03T01:04:30.456Z,93.54
2023-02-03T01:05:30.472Z,93.43
2023-02-03T01:06:30.421Z,93.33
2023-02-03T01:07:30.435Z,93.33
2023-02-03T01:08:30.397Z,93.23
2023-02-03T01:09:30.412Z,93.02
2023-02-03T01:10:30.386Z,92.92
2023-02-03T01:11:30.385Z,92.92
2023-02-03T01:12:30.377Z,92.92
2023-02-03T01:13:30.373Z,92.92
2023-02-03T01:14:30.333Z,92.82
2023-02-03T01:15:30.361Z,92.82
2023-02-03T01:16:30.362Z,92.71
2023-02-03T01:17:30.327Z,92.61
2023-02-03T01:18:30.339Z,92.61
2023-02-03T01:19:30.302Z,92.50
2023-02-03T01:20:30.297Z,92.40
2023-02-03T01:21:30.257Z,92.30
2023-02-03T01:22:30.265Z,92.30
2023-02-03T01:23:30.242Z,92.30
2023-02-03T01:24:30.228Z,92.30
2023-02-03T01:25:30.194Z,92.30
2023-02-03T01:26:30.234Z,92.20
2023-02-03T01:27:30.174Z,92.30
2023-02-03T01:28:30.207Z,92.30
2023-02-03T01:29:30.151Z,92.30
2023-02-03T01:30:30.373Z,92.30
2023-02-03T01:31:30.462Z,92.20
2023-02-03T01:32:30.160Z,92.10
2023-02-03T01:33:30.107Z,92.20
2023-02-03T01:34:30.148Z,92.10
2023-02-03T01:35:30.116Z,92.10
2023-02-03T01:36:30.135Z,92.10
2023-02-03T01:37:30.063Z,92.10
2023-02-03T01:38:30.099Z,91.99
2023-02-03T01:39:30.045Z,91.99
2023-02-03T01:40:30.075Z,91.99
2023-02-03T01:41:30.042Z,92.10
2023-02-03T01:42:30.984Z,92.10
2023-02-03T01:43:29.994Z,91.99
2023-02-03T01:44:30.009Z,91.99
2023-02-03T01:45:29.987Z,91.99
2023-02-03T01:46:30.049Z,91.99
2023-02-03T01:47:29.971Z,91.99
2023-02-03T01:48:29.974Z,91.99
2023-02-03T01:49:29.963Z,91.99
2023-02-03T01:50:29.984Z,91.99
2023-02-03T01:51:29.906Z,91.89
2023-02-03T01:52:29.922Z,91.78
2023-02-03T01:53:29.893Z,91.78
2023-02-03T01:54:29.920Z,91.74
2023-02-03T01:55:29.893Z,91.74
2023-02-03T01:56:29.882Z,91.64
2023-02-03T01:57:29.887Z,91.64
2023-02-03T01:58:29.873Z,91.74
2023-02-03T01:59:29.826Z,91.74
2023-02-03T02:00:29.976Z,91.64
2023-02-03T02:01:29.842Z,91.64
2023-02-03T02:02:30.917Z,91.53
2023-02-03T02:03:29.784Z,91.53
2023-02-03T02:04:29.800Z,91.44
2023-02-03T02:05:29.773Z,91.53
2023-02-03T02:06:29.790Z,91.53
2023-02-03T02:07:29.743Z,91.53
2023-02-03T02:08:29.750Z,91.44
2023-02-03T02:09:29.707Z,91.44
2023-02-03T02:10:29.972Z,91.23
2023-02-03T02:11:29.712Z,91.44
2023-02-03T02:12:29.701Z,91.33
2023-02-03T02:13:29.686Z,91.33
2023-02-03T02:14:29.686Z,91.23
2023-02-03T02:15:29.685Z,91.23
2023-02-03T02:16:29.702Z,91.23
2023-02-03T02:17:29.662Z,91.13
2023-02-03T02:18:29.834Z,91.02
2023-02-03T02:19:29.599Z,91.02
2023-02-03T02:20:29.630Z,91.02
2023-02-03T02:21:29.591Z,91.02
2023-02-03T02:22:29.592Z,91.13
2023-02-03T02:23:29.560Z,91.02
2023-02-03T02:24:29.565Z,91.02
2023-02-03T02:25:29.585Z,91.13
2023-02-03T02:26:29.553Z,91.13
2023-02-03T02:27:29.513Z,91.02
2023-02-03T02:28:29.542Z,91.13
2023-02-03T02:29:29.508Z,91.13
2023-02-03T02:30:29.515Z,91.23
2023-02-03T02:31:29.584Z,91.33
2023-02-03T02:32:29.497Z,91.13
2023-02-03T02:33:29.463Z,91.02
2023-02-03T02:34:29.464Z,91.02
2023-02-03T02:35:29.419Z,91.33
2023-02-03T02:36:29.482Z,91.33
2023-02-03T02:37:29.405Z,91.33
2023-02-03T02:38:29.427Z,91.33
2023-02-03T02:39:29.395Z,91.33
2023-02-03T02:40:29.394Z,91.33
2023-02-03T02:41:29.376Z,91.23
2023-02-03T02:42:29.363Z,91.13
2023-02-03T02:43:29.334Z,91.23
2023-02-03T02:44:29.368Z,91.23
2023-02-03T02:45:29.313Z,91.23
2023-02-03T02:46:29.385Z,91.23
2023-02-03T02:47:29.298Z,91.23
2023-02-03T02:48:29.341Z,91.13
2023-02-03T02:49:29.271Z,91.02
2023-02-03T02:50:29.410Z,90.72
2023-02-03T02:51:29.266Z,90.72
2023-02-03T02:52:29.284Z,90.81
2023-02-03T02:53:29.224Z,90.81
2023-02-03T02:54:30.175Z,90.92
2023-02-03T02:55:29.206Z,91.02
2023-02-03T02:56:29.220Z,90.92
2023-02-03T02:57:29.199Z,90.81
2023-02-03T02:58:29.201Z,90.72
2023-02-03T02:59:29.151Z,90.72
2023-02-03T03:00:29.362Z,90.72
2023-02-03T03:01:29.189Z,90.72
2023-02-03T03:02:29.167Z,90.72
2023-02-03T03:03:29.170Z,90.41
2023-02-03T03:04:29.147Z,90.41
2023-02-03T03:05:29.124Z,89.89
2023-02-03T03:06:29.117Z,89.64
2023-02-03T03:07:29.230Z,89.75
2023-02-03T03:08:29.103Z,89.75
2023-02-03T03:09:29.267Z,89.54
2023-02-03T03:10:29.171Z,89.64
2023-02-03T03:11:29.069Z,89.64
2023-02-03T03:12:29.062Z,89.64
2023-02-03T03:13:29.020Z,89.64
2023-02-03T03:14:29.028Z,89.48
2023-02-03T03:15:28.984Z,89.38
2023-02-03T03:16:29.017Z,89.17
2023-02-03T03:17:28.956Z,89.03
2023-02-03T03:18:28.967Z,89.13
2023-02-03T03:19:28.942Z,89.13
2023-02-03T03:20:29.145Z,89.13
2023-02-03T03:21:28.917Z,88.82
2023-02-03T03:22:28.936Z,88.72
2023-02-03T03:23:28.892Z,88.72
2023-02-03T03:24:28.901Z,88.31
2023-02-03T03:25:28.884Z,88.20
2023-02-03T03:26:28.878Z,88.10
2023-02-03T03:27:28.848Z,88.20
2023-02-03T03:28:28.860Z,88.20
2023-02-03T03:29:28.846Z,88.10
2023-02-03T03:30:29.133Z,88.20
2023-02-03T03:31:28.932Z,88.20
2023-02-03T03:32:28.805Z,88.10
2023-02-03T03:33:28.795Z,87.69
2023-02-03T03:34:28.833Z,87.49
2023-02-03T03:35:28.761Z,87.28
2023-02-03T03:36:28.786Z,87.28
2023-02-03T03:37:28.734Z,87.18
2023-02-03T03:38:28.790Z,87.28
2023-02-03T03:39:28.747Z,87.38
2023-02-03T03:40:28.924Z,87.49
2023-02-03T03:41:28.704Z,87.49
2023-02-03T03:42:31.336Z,87.59
2023-02-03T03:43:28.698Z,87.49
2023-02-03T03:44:28.675Z,87.38
2023-02-03T03:45:28.646Z,87.38
2023-02-03T03:46:28.692Z,87.28
2023-02-03T03:47:28.646Z,87.28
2023-02-03T03:48:28.667Z,87.38
2023-02-03T03:49:28.621Z,87.18
2023-02-03T03:50:28.827Z,87.28
2023-02-03T03:51:28.580Z,87.38
2023-02-03T03:52:28.589Z,87.28
2023-02-03T03:53:28.551Z,87.28
2023-02-03T03:54:28.586Z,87.38
2023-02-03T03:55:28.544Z,87.49
2023-02-03T03:56:28.549Z,87.59
2023-02-03T03:57:28.506Z,87.59
2023-02-03T03:58:28.527Z,87.69
2023-02-03T03:59:28.501Z,87.69
2023-02-03T04:00:28.865Z,87.79
2023-02-03T04:01:28.617Z,87.79
2023-02-03T04:02:28.645Z,87.69
2023-02-03T04:03:28.525Z,87.49
2023-02-03T04:04:28.471Z,87.28
2023-02-03T04:05:28.425Z,87.28
2023-02-03T04:06:28.429Z,87.18
2023-02-03T04:07:28.399Z,86.97
2023-02-03T04:08:28.417Z,86.77
2023-02-03T04:09:28.400Z,86.66
2023-02-03T04:10:28.732Z,86.66
2023-02-03T04:11:28.365Z,86.66
2023-02-03T04:12:28.368Z,86.87
2023-02-03T04:13:28.335Z,86.97
2023-02-03T04:14:28.390Z,86.97
2023-02-03T04:15:28.346Z,86.97
2023-02-03T04:16:28.361Z,86.97
2023-02-03T04:17:28.288Z,86.77
2023-02-03T04:18:28.303Z,86.66
2023-02-03T04:19:28.270Z,86.66
2023-02-03T04:20:28.673Z,86.66
2023-02-03T04:21:29.203Z,86.77
2023-02-03T04:22:28.284Z,86.56
2023-02-03T04:23:28.223Z,86.46
2023-02-03T04:24:28.239Z,86.35
2023-02-03T04:25:28.219Z,86.46
2023-02-03T04:26:28.223Z,86.46
2023-02-03T04:27:28.175Z,86.15
2023-02-03T04:28:28.196Z,86.11
2023-02-03T04:29:29.107Z,86.15
2023-02-03T04:30:28.578Z,86.35
2023-02-03T04:31:28.308Z,86.15
2023-02-03T04:32:28.156Z,86.15
2023-02-03T04:33:28.137Z,86.05
2023-02-03T04:34:28.137Z,85.84
2023-02-03T04:35:28.106Z,85.84
2023-02-03T04:36:28.090Z,85.84
2023-02-03T04:37:28.062Z,85.53
2023-02-03T04:38:28.135Z,85.43
2023-02-03T04:39:28.040Z,85.43
2023-02-03T04:40:28.418Z,85.43
2023-02-03T04:41:28.036Z,85.43
2023-02-03T04:42:28.039Z,85.53
2023-02-03T04:43:27.991Z,85.43
2023-02-03T04:44:28.008Z,85.12
2023-02-03T04:45:28.162Z,85.02
2023-02-03T04:46:27.992Z,85.22
2023-02-03T04:47:27.957Z,85.08
2023-02-03T04:48:27.968Z,84.77
2023-02-03T04:49:27.935Z,84.88
2023-02-03T04:50:28.286Z,84.77
2023-02-03T04:51:27.908Z,84.56
2023-02-03T04:52:27.924Z,84.36
2023-02-03T04:53:27.912Z,84.26
2023-02-03T04:54:27.909Z,84.05
2023-02-03T04:55:27.896Z,84.05
2023-02-03T04:56:27.886Z,83.95
2023-02-03T04:57:27.850Z,83.95
2023-02-03T04:58:27.861Z,83.33
2023-02-03T04:59:27.817Z,83.23
2023-02-03T05:00:28.233Z,83.23
2023-02-03T05:01:27.880Z,83.33
2023-02-03T05:02:27.832Z,83.54
2023-02-03T05:03:27.948Z,83.54
2023-02-03T05:04:27.798Z,83.54
2023-02-03T05:05:27.778Z,83.64
2023-02-03T05:06:27.765Z,83.75
2023-02-03T05:07:27.728Z,83.75
2023-02-03T05:08:27.759Z,83.44
2023-02-03T05:09:27.708Z,83.23
2023-02-03T05:10:27.989Z,83.03
2023-02-03T05:11:27.717Z,83.03
2023-02-03T05:12:27.709Z,83.13
2023-02-03T05:13:27.679Z,83.13
2023-02-03T05:14:27.708Z,83.03
2023-02-03T05:15:27.674Z,83.03
2023-02-03T05:16:27.719Z,83.13
2023-02-03T05:17:27.641Z,83.33
2023-02-03T05:18:27.641Z,83.33
2023-02-03T05:19:27.621Z,83.23
2023-02-03T05:20:28.009Z,83.44
2023-02-03T05:21:27.582Z,83.54
2023-02-03T05:22:27.604Z,83.54
2023-02-03T05:23:27.542Z,83.54
2023-02-03T05:24:27.569Z,83.54
2023-02-03T05:25:27.528Z,83.54
2023-02-03T05:26:27.546Z,83.33
2023-02-03T05:27:27.523Z,83.23
2023-02-03T05:28:27.531Z,83.33
2023-02-03T05:29:27.496Z,83.33
2023-02-03T05:30:27.802Z,83.33
2023-02-03T05:31:27.520Z,83.33
2023-02-03T05:32:27.502Z,83.23
2023-02-03T05:33:27.461Z,83.33
2023-02-03T05:34:27.484Z,83.33
2023-02-03T05:35:27.450Z,83.44
2023-02-03T05:36:27.465Z,83.64
2023-02-03T05:37:27.422Z,83.64
2023-02-03T05:38:27.396Z,83.54
2023-02-03T05:39:27.396Z,83.75
2023-02-03T05:40:27.743Z,83.75
2023-02-03T05:41:27.403Z,83.85
2023-02-03T05:42:27.337Z,83.85
2023-02-03T05:43:27.371Z,83.85
2023-02-03T05:44:27.348Z,83.64
2023-02-03T05:45:27.407Z,83.64
2023-02-03T05:46:27.309Z,83.75
2023-02-03T05:47:27.312Z,83.54
2023-02-03T05:48:27.277Z,83.64
2023-02-03T05:49:27.310Z,83.44
2023-02-03T05:50:27.626Z,83.64
2023-02-03T05:51:27.292Z,83.64
2023-02-03T05:52:27.236Z,83.54
2023-02-03T05:53:27.248Z,83.44
2023-02-03T05:54:27.212Z,83.33
2023-02-03T05:55:27.254Z,83.19
2023-02-03T05:56:27.209Z,83.19
2023-02-03T05:57:27.213Z,83.19
2023-02-03T05:58:27.178Z,83.29
2023-02-03T05:59:27.192Z,83.09
2023-02-03T06:00:27.392Z,83.19
2023-02-03T06:01:27.167Z,83.29
2023-02-03T06:02:27.142Z,83.29
2023-02-03T06:03:27.194Z,83.19
2023-02-03T06:04:27.131Z,83.09
2023-02-03T06:05:27.164Z,83.09
2023-02-03T06:06:27.077Z,83.29
2023-02-03T06:07:27.097Z,83.19
2023-02-03T06:08:27.072Z,83.09
2023-02-03T06:09:27.078Z,83.29
2023-02-03T06:10:27.463Z,83.29
2023-02-03T06:11:27.049Z,83.40
2023-02-03T06:12:28.357Z,83.61
2023-02-03T06:13:27.023Z,83.40
2023-02-03T06:14:27.009Z,83.19
2023-02-03T06:15:27.012Z,83.29
2023-02-03T06:16:27.074Z,83.40
2023-02-03T06:17:27.004Z,83.19
2023-02-03T06:18:26.938Z,83.29
2023-02-03T06:19:27.008Z,82.99
2023-02-03T06:20:27.246Z,83.09
2023-02-03T06:21:28.911Z,83.19
2023-02-03T06:22:26.905Z,83.19
2023-02-03T06:23:26.948Z,83.19
2023-02-03T06:24:26.902Z,82.99
2023-02-03T06:25:26.905Z,83.09
2023-02-03T06:26:27.318Z,83.09
2023-02-03T06:27:26.881Z,82.99
2023-02-03T06:28:26.832Z,83.09
2023-02-03T06:29:26.861Z,83.09
2023-02-03T06:30:27.289Z,83.19
2023-02-03T06:31:26.977Z,83.19
2023-02-03T06:32:27.003Z,83.19
2023-02-03T06:33:26.833Z,83.29
2023-02-03T06:34:26.763Z,83.19
2023-02-03T06:35:26.791Z,83.29
2023-02-03T06:36:26.748Z,83.19
2023-02-03T06:37:26.795Z,83.29
2023-02-03T06:38:26.730Z,83.09
2023-02-03T06:39:26.736Z,83.19
2023-02-03T06:40:27.023Z,83.29
2023-02-03T06:41:26.724Z,83.40
2023-02-03T06:42:26.696Z,83.40
2023-02-03T06:43:26.755Z,83.50
2023-02-03T06:44:26.678Z,83.40
2023-02-03T06:45:26.686Z,83.61
2023-02-03T06:46:26.699Z,83.70
2023-02-03T06:47:26.644Z,83.81
2023-02-03T06:48:26.627Z,83.70
2023-02-03T06:49:26.657Z,83.70
2023-02-03T06:50:27.040Z,83.81
2023-02-03T06:51:26.602Z,83.81
2023-02-03T06:52:26.578Z,83.81
2023-02-03T06:53:26.589Z,84.01
2023-02-03T06:54:26.550Z,84.12
2023-02-03T06:55:26.596Z,84.32
2023-02-03T06:56:26.525Z,84.32
2023-02-03T06:57:26.552Z,84.32
2023-02-03T06:58:26.502Z,84.32
2023-02-03T06:59:26.521Z,84.42
2023-02-03T07:00:26.716Z,84.63
2023-02-03T07:01:26.569Z,84.74
2023-02-03T07:02:26.478Z,84.74
2023-02-03T07:03:26.489Z,84.74
2023-02-03T07:04:26.441Z,84.84
2023-02-03T07:05:26.483Z,85.04
2023-02-03T07:06:26.428Z,85.14
2023-02-03T07:07:26.422Z,85.25
2023-02-03T07:08:26.404Z,85.35
2023-02-03T07:09:26.423Z,85.46
2023-02-03T07:10:26.758Z,85.55
2023-02-03T07:11:26.388Z,85.76
2023-02-03T07:12:26.379Z,85.86
2023-02-03T07:13:26.396Z,85.97
2023-02-03T07:14:26.338Z,86.17
2023-02-03T07:15:26.343Z,86.38
2023-02-03T07:16:26.327Z,86.58
2023-02-03T07:17:26.312Z,86.68
2023-02-03T07:19:27.296Z,86.68
2023-02-03T07:20:26.665Z,86.79
2023-02-03T07:21:26.275Z,86.79
2023-02-03T07:22:26.250Z,86.99
2023-02-03T07:23:26.252Z,86.79
2023-02-03T07:24:26.215Z,86.89
2023-02-03T07:25:26.277Z,87.10
2023-02-03T07:26:26.179Z,87.20
2023-02-03T07:27:26.232Z,87.40
2023-02-03T07:28:26.170Z,87.40
2023-02-03T07:29:26.179Z,87.51
2023-02-03T07:30:26.556Z,87.61
2023-02-03T07:31:26.267Z,87.71
2023-02-03T07:32:26.140Z,87.82
2023-02-03T07:33:26.150Z,87.92
2023-02-03T07:34:26.098Z,88.12
2023-02-03T07:35:26.141Z,88.23
2023-02-03T07:36:26.118Z,88.33
2023-02-03T07:37:26.102Z,88.43
2023-02-03T07:38:26.056Z,88.53
2023-02-03T07:39:26.072Z,88.64
2023-02-03T07:40:26.346Z,88.84
2023-02-03T07:41:26.051Z,89.04
2023-02-03T07:42:26.015Z,89.19
2023-02-03T07:43:26.036Z,89.40
2023-02-03T07:44:25.984Z,89.46
2023-02-03T07:45:26.010Z,89.66
2023-02-03T07:46:26.034Z,89.91
2023-02-03T07:47:25.977Z,90.12
2023-02-03T07:48:26.000Z,90.22
2023-02-03T07:49:25.983Z,90.42
2023-02-03T07:50:26.270Z,90.53
2023-02-03T07:51:25.938Z,90.73
2023-02-03T07:52:25.899Z,90.94
2023-02-03T07:53:25.917Z,91.14
2023-02-03T07:54:25.883Z,91.14
2023-02-03T07:55:25.888Z,91.35
2023-02-03T07:56:25.863Z,91.35
2023-02-03T07:57:25.876Z,91.45
2023-02-03T07:58:25.872Z,91.45
2023-02-03T07:59:25.899Z,91.66
2023-02-03T08:00:26.097Z,91.76
2023-02-03T08:01:25.925Z,91.66
2023-02-03T08:02:25.799Z,91.66
2023-02-03T08:03:25.806Z,91.76
2023-02-03T08:04:25.780Z,91.66
2023-02-03T08:05:25.912Z,91.66
2023-02-03T08:06:25.742Z,91.66
2023-02-03T08:07:25.756Z,91.66
2023-02-03T08:08:25.710Z,91.45
2023-02-03T08:09:25.754Z,91.45
2023-02-03T08:10:26.160Z,91.14
2023-02-03T08:11:25.746Z,91.14
2023-02-03T08:12:25.662Z,91.04
2023-02-03T08:13:25.709Z,90.94
2023-02-03T08:14:25.663Z,90.83
2023-02-03T08:15:25.669Z,90.83
2023-02-03T08:16:25.663Z,90.94
2023-02-03T08:17:25.926Z,91.04
2023-02-03T08:18:25.603Z,90.83
2023-02-03T08:19:25.617Z,90.83
2023-02-03T08:20:25.756Z,90.83
2023-02-03T08:21:25.602Z,90.83
2023-02-03T08:22:25.643Z,90.73
2023-02-03T08:23:25.645Z,90.73
2023-02-03T08:24:25.546Z,90.73
2023-02-03T08:25:25.577Z,90.63
2023-02-03T08:26:25.511Z,90.53
2023-02-03T08:27:25.538Z,90.42
2023-02-03T08:28:25.506Z,90.42
2023-02-03T08:29:25.513Z,90.42
2023-02-03T08:30:25.800Z,90.53
2023-02-03T08:31:25.697Z,90.63
2023-02-03T08:32:25.572Z,90.63
2023-02-03T08:33:25.469Z,90.73
2023-02-03T08:34:25.427Z,90.73
2023-02-03T08:35:25.474Z,90.42
2023-02-03T08:36:25.406Z,90.53
2023-02-03T08:37:25.435Z,90.63
2023-02-03T08:38:25.402Z,90.48
2023-02-03T08:39:25.408Z,90.59
2023-02-03T08:40:25.806Z,90.59
2023-02-03T08:41:25.368Z,90.80
2023-02-03T08:42:25.360Z,90.80
2023-02-03T08:43:25.349Z,90.69
2023-02-03T08:44:25.312Z,90.80
2023-02-03T08:45:25.325Z,91.00
2023-02-03T08:46:25.289Z,91.00
2023-02-03T08:47:25.303Z,91.10
2023-02-03T08:48:25.289Z,91.00
2023-02-03T08:49:25.279Z,91.04
2023-02-03T08:50:25.465Z,91.00
2023-02-03T08:51:25.269Z,91.10
2023-02-03T08:52:25.233Z,91.04
2023-02-03T08:53:25.282Z,91.14
2023-02-03T08:54:25.199Z,91.25
2023-02-03T08:55:25.230Z,91.35
2023-02-03T08:56:25.745Z,91.31
2023-02-03T08:57:25.202Z,91.45
2023-02-03T08:58:25.161Z,91.45
2023-02-03T08:59:25.196Z,91.51
2023-02-03T09:00:25.522Z,91.61
2023-02-03T09:01:25.344Z,91.51
2023-02-03T09:02:25.121Z,91.61
2023-02-03T09:03:25.123Z,91.72
2023-02-03T09:04:25.118Z,91.93
2023-02-03T09:05:25.150Z,92.17
2023-02-03T09:06:26.345Z,92.27
2023-02-03T09:07:25.102Z,92.38
2023-02-03T09:08:25.053Z,92.58
2023-02-03T09:09:25.058Z,92.38
2023-02-03T09:10:25.245Z,92.33
2023-02-03T09:11:25.049Z,92.44
2023-02-03T09:12:24.998Z,92.48
2023-02-03T09:13:25.029Z,92.48
2023-02-03T09:14:24.976Z,92.38
2023-02-03T09:15:25.003Z,92.38
2023-02-03T09:16:24.992Z,92.48
2023-02-03T09:17:24.974Z,92.44
2023-02-03T09:18:25.139Z,92.33
2023-02-03T09:19:24.961Z,92.13
2023-02-03T09:20:25.053Z,92.33
2023-02-03T09:21:39.799Z,92.33
2023-02-03T09:22:25.903Z,92.33
2023-02-03T09:23:24.891Z,92.33
2023-02-03T09:24:24.924Z,92.23
2023-02-03T09:25:24.904Z,92.23
2023-02-03T09:26:24.853Z,92.13
2023-02-03T09:27:24.860Z,92.13
2023-02-03T09:28:24.819Z,92.13
2023-02-03T09:29:24.846Z,92.03
2023-02-03T09:30:24.941Z,92.03
2023-02-03T09:31:24.900Z,92.03
2023-02-03T09:32:24.767Z,92.13
2023-02-03T09:33:24.804Z,92.13
2023-02-03T09:34:24.786Z,92.23
2023-02-03T09:35:24.784Z,92.13
2023-02-03T09:36:24.855Z,92.13
2023-02-03T09:37:24.770Z,92.23
2023-02-03T09:38:24.712Z,92.33
2023-02-03T09:39:24.732Z,92.44
2023-02-03T09:40:24.874Z,92.44
2023-02-03T09:41:24.706Z,92.33
2023-02-03T09:42:24.682Z,92.44
2023-02-03T09:43:24.671Z,92.44
2023-02-03T09:44:24.679Z,92.54
2023-02-03T09:45:24.671Z,92.64
2023-02-03T09:46:24.674Z,92.54
2023-02-03T09:47:24.624Z,92.64
2023-02-03T09:48:24.583Z,92.64
2023-02-03T09:49:24.618Z,92.74
2023-02-03T09:50:24.846Z,92.85
2023-02-03T09:51:24.565Z,92.74
2023-02-03T09:52:24.568Z,92.85
2023-02-03T09:53:24.567Z,92.85
2023-02-03T09:54:24.554Z,92.95
2023-02-03T09:55:24.513Z,92.85
2023-02-03T09:56:24.524Z,92.85
2023-02-03T09:57:24.502Z,92.95
2023-02-03T09:58:24.542Z,92.95
2023-02-03T09:59:24.474Z,92.95
2023-02-03T10:00:24.501Z,92.95
2023-02-03T10:01:24.492Z,92.74
2023-02-03T10:02:24.531Z,92.74
2023-02-03T10:03:24.433Z,92.64
2023-02-03T10:04:24.442Z,92.54
2023-02-03T10:05:24.406Z,92.44
2023-02-03T10:06:24.405Z,92.23
2023-02-03T10:07:24.379Z,91.93
2023-02-03T10:08:24.440Z,91.82
2023-02-03T10:09:24.362Z,91.82
2023-02-03T10:10:24.378Z,91.72
2023-02-03T10:11:24.343Z,91.72
2023-02-03T10:12:24.340Z,91.72
2023-02-03T10:13:24.321Z,91.72
2023-02-03T10:14:24.348Z,91.82
2023-02-03T10:15:24.301Z,91.72
2023-02-03T10:16:24.322Z,91.82
2023-02-03T10:17:24.615Z,91.93
2023-02-03T10:18:24.269Z,92.03
2023-02-03T10:19:24.247Z,92.13
2023-02-03T10:20:24.274Z,92.23
2023-02-03T10:21:24.251Z,92.33
2023-02-03T10:22:24.255Z,92.54
2023-02-03T10:23:24.275Z,92.74
2023-02-03T10:24:24.233Z,92.80
2023-02-03T10:25:24.178Z,92.91
2023-02-03T10:26:24.210Z,93.12
2023-02-03T10:27:24.166Z,93.05
2023-02-03T10:28:24.252Z,93.12
2023-02-03T10:29:24.151Z,93.12
2023-02-03T10:30:24.160Z,93.01
2023-02-03T10:31:24.308Z,93.01
2023-02-03T10:32:24.131Z,92.91
2023-02-03T10:33:24.083Z,93.01
2023-02-03T10:34:24.109Z,93.12
2023-02-03T10:35:24.067Z,93.21
2023-02-03T10:36:24.074Z,93.21
2023-02-03T10:37:24.051Z,93.01
2023-02-03T10:38:24.055Z,92.80
2023-02-03T10:39:24.039Z,92.80
2023-02-03T10:40:24.016Z,92.60
2023-02-03T10:41:24.033Z,92.80
2023-02-03T10:42:24.013Z,92.80
2023-02-03T10:43:23.974Z,92.70
2023-02-03T10:44:23.996Z,92.70
2023-02-03T10:45:23.956Z,92.60
2023-02-03T10:46:24.049Z,92.60
2023-02-03T10:47:23.955Z,92.60
2023-02-03T10:48:23.958Z,92.50
2023-02-03T10:49:23.935Z,92.40
2023-02-03T10:50:23.960Z,92.29
2023-02-03T10:51:23.926Z,92.50
2023-02-03T10:52:23.900Z,92.60
2023-02-03T10:53:23.855Z,92.50
2023-02-03T10:54:23.892Z,92.19
2023-02-03T10:55:23.837Z,92.08
2023-02-03T10:56:23.866Z,92.19
2023-02-03T10:57:23.839Z,92.19
2023-02-03T10:58:23.847Z,92.19
2023-02-03T10:59:23.804Z,91.88
2023-02-03T11:00:23.899Z,91.88
2023-02-03T11:01:23.856Z,91.78
2023-02-03T11:02:23.844Z,91.78
2023-02-03T11:03:23.763Z,91.78
2023-02-03T11:04:23.769Z,91.78
2023-02-03T11:05:23.715Z,91.88
2023-02-03T11:06:23.775Z,91.78
2023-02-03T11:07:23.712Z,91.88
2023-02-03T11:08:23.717Z,92.19
2023-02-03T11:09:23.699Z,92.29
2023-02-03T11:10:23.692Z,92.29
2023-02-03T11:11:24.830Z,92.50
2023-02-03T11:12:23.666Z,92.40
2023-02-03T11:13:23.652Z,92.40
2023-02-03T11:14:23.657Z,92.60
2023-02-03T11:15:23.625Z,92.60
2023-02-03T11:16:23.737Z,92.70
2023-02-03T11:17:23.577Z,93.01
2023-02-03T11:18:23.626Z,93.12
2023-02-03T11:19:23.566Z,93.01
2023-02-03T11:20:23.588Z,93.21
2023-02-03T11:21:23.541Z,93.01
2023-02-03T11:22:23.555Z,93.21
2023-02-03T11:23:23.636Z,93.32
2023-02-03T11:24:23.546Z,93.42
2023-02-03T11:25:23.500Z,93.52
2023-02-03T11:26:23.521Z,93.63
2023-02-03T11:27:23.469Z,93.83
2023-02-03T11:28:23.476Z,93.83
2023-02-03T11:29:23.930Z,93.83
2023-02-03T11:30:23.478Z,93.93
2023-02-03T11:31:23.636Z,93.93
2023-02-03T11:32:23.613Z,94.14
2023-02-03T11:33:23.401Z,94.24
2023-02-03T11:34:23.411Z,94.34
2023-02-03T11:35:24.217Z,94.34
2023-02-03T11:36:23.417Z,94.34
2023-02-03T11:37:23.373Z,94.45
2023-02-03T11:38:23.376Z,94.45
2023-02-03T11:39:23.358Z,94.24
2023-02-03T11:40:23.365Z,94.14
2023-02-03T11:41:24.068Z,94.04
2023-02-03T11:42:23.331Z,94.04
2023-02-03T11:43:23.317Z,94.04
2023-02-03T11:44:23.316Z,94.14
2023-02-03T11:45:23.278Z,93.93
2023-02-03T11:46:23.331Z,93.83
2023-02-03T11:47:23.972Z,93.63
2023-02-03T11:48:23.276Z,93.63
2023-02-03T11:49:23.224Z,93.73
2023-02-03T11:50:23.236Z,93.93
2023-02-03T11:51:23.201Z,94.04
2023-02-03T11:52:23.233Z,94.34
2023-02-03T11:53:24.161Z,94.45
2023-02-03T11:54:23.188Z,94.65
2023-02-03T11:55:23.159Z,94.85
2023-02-03T11:56:23.186Z,94.85
2023-02-03T11:57:23.135Z,94.76
2023-02-03T11:58:23.161Z,94.76
2023-02-03T11:59:23.128Z,94.65
2023-02-03T12:00:23.127Z,94.45
2023-02-03T12:01:23.097Z,94.14
2023-02-03T12:02:23.106Z,93.93
2023-02-03T12:03:23.101Z,93.83
2023-02-03T12:04:23.163Z,93.42
2023-02-03T12:05:23.048Z,93.32
2023-02-03T12:06:23.066Z,92.35
2023-02-03T12:07:23.024Z,92.04
2023-02-03T12:08:23.074Z,92.14
2023-02-03T12:09:23.002Z,91.84
2023-02-03T12:10:23.038Z,91.33
2023-02-03T12:11:24.028Z,91.12
2023-02-03T12:12:22.993Z,91.12
2023-02-03T12:13:22.954Z,91.22
2023-02-03T12:14:23.041Z,91.33
2023-02-03T12:15:22.964Z,91.12
2023-02-03T12:16:23.004Z,91.33
2023-02-03T12:17:23.884Z,91.42
2023-02-03T12:18:22.923Z,91.74
2023-02-03T12:19:22.884Z,91.84
2023-02-03T12:20:22.909Z,91.74
2023-02-03T12:21:22.897Z,91.84
2023-02-03T12:22:22.883Z,92.04
2023-02-03T12:23:23.776Z,91.84
2023-02-03T12:24:22.861Z,91.53
2023-02-03T12:25:22.824Z,91.33
2023-02-03T12:26:22.850Z,90.91
2023-02-03T12:27:22.827Z,91.22
2023-02-03T12:28:32.952Z,91.33
2023-02-03T12:29:23.789Z,91.42
2023-02-03T12:30:22.815Z,91.12
2023-02-03T12:31:22.841Z,90.71
2023-02-03T12:32:22.771Z,90.81
2023-02-03T12:33:22.730Z,90.91
2023-02-03T12:34:22.763Z,90.81
2023-02-03T12:35:22.717Z,90.61
2023-02-03T12:36:22.730Z,90.81
2023-02-03T12:37:22.688Z,90.40
2023-02-03T12:38:22.694Z,90.50
2023-02-03T12:39:22.667Z,90.81
2023-02-03T12:40:22.687Z,91.02
2023-02-03T12:41:22.667Z,91.02
2023-02-03T12:42:22.672Z,91.12
2023-02-03T12:43:22.630Z,91.42
2023-02-03T12:44:22.631Z,91.63
2023-02-03T12:45:22.602Z,91.53
2023-02-03T12:46:22.678Z,91.57
2023-02-03T12:47:22.584Z,91.47
2023-02-03T12:48:22.572Z,91.78
2023-02-03T12:49:22.541Z,91.88
2023-02-03T12:50:22.582Z,92.08
2023-02-03T12:51:22.519Z,92.50
2023-02-03T12:52:22.561Z,92.70
2023-02-03T12:53:22.505Z,92.91